createdAt,value
2022-09-01T00:01:51.587Z,7.70
2022-09-01T00:06:51.440Z,10.70
2022-09-01T00:11:50.930Z,12.30
2022-09-01T00:16:51.737Z,12.00
2022-09-01T00:21:50.962Z,12.30
2022-09-01T00:26:53.076Z,11.90
2022-09-01T00:31:52.188Z,11.90
2022-09-01T00:36:53.291Z,11.90
2022-09-01T00:41:54.388Z,13.10
2022-09-01T00:46:56.891Z,13.30
2022-09-01T00:51:57.016Z,12.20
2022-09-01T00:56:57.754Z,11.60
2022-09-01T01:01:59.116Z,11.20
2022-09-01T01:06:58.316Z,12.40
2022-09-01T01:11:59.520Z,11.90
2022-09-01T01:17:00.706Z,12.10
2022-09-01T01:22:01.884Z,12.20
2022-09-01T01:27:02.969Z,12.80
2022-09-01T01:32:04.068Z,12.20
2022-09-01T01:37:05.270Z,11.60
2022-09-01T01:42:06.419Z,10.50
2022-09-01T01:47:08.803Z,11.30
2022-09-01T01:52:08.317Z,10.40
2022-09-01T01:57:08.454Z,10.00
2022-09-01T02:02:07.699Z,10.10
2022-09-01T02:07:08.828Z,10.90
2022-09-01T02:12:10.090Z,9.40
2022-09-01T02:17:11.233Z,9.40
2022-09-01T02:22:13.360Z,10.50
2022-09-01T02:27:13.443Z,10.50
2022-09-01T02:32:13.693Z,11.00
2022-09-01T02:37:12.874Z,12.10
2022-09-01T02:42:14.074Z,10.50
2022-09-01T02:47:15.365Z,10.40
2022-09-01T02:52:16.655Z,10.30
2022-09-01T02:57:17.814Z,9.20
2022-09-01T03:02:19.004Z,9.30
2022-09-01T03:07:21.099Z,10.20
2022-09-01T03:12:20.297Z,10.20
2022-09-01T03:17:21.532Z,10.00
2022-09-01T03:22:22.705Z,10.10
2022-09-01T03:27:23.947Z,10.40
2022-09-01T03:32:25.134Z,10.60
2022-09-01T03:37:27.230Z,9.20
2022-09-01T03:42:27.335Z,9.10
2022-09-01T03:47:30.458Z,9.40
2022-09-01T03:52:29.704Z,9.50
2022-09-01T03:57:32.412Z,9.80
2022-09-01T04:02:32.239Z,10.10
2022-09-01T04:07:33.405Z,9.80
2022-09-01T04:12:34.643Z,10.30
2022-09-01T04:17:35.843Z,11.60
2022-09-01T04:22:37.047Z,10.60
2022-09-01T04:27:38.167Z,10.20
2022-09-01T04:32:39.244Z,9.40
2022-09-01T04:37:40.506Z,10.90
2022-09-01T04:42:41.774Z,9.90
2022-09-01T04:47:43.911Z,9.10
2022-09-01T04:52:44.010Z,9.70
2022-09-01T04:57:43.203Z,9.20
2022-09-01T05:02:45.686Z,8.60
2022-09-01T05:07:45.393Z,9.30
2022-09-01T05:12:47.507Z,8.90
2022-09-01T05:17:48.623Z,9.40
2022-09-01T05:22:47.733Z,9.10
2022-09-01T05:27:48.951Z,8.30
2022-09-01T05:32:52.132Z,7.80
2022-09-01T05:37:51.226Z,8.30
2022-09-01T05:42:52.467Z,7.90
2022-09-01T05:47:53.717Z,7.90
2022-09-01T05:52:54.797Z,7.50
2022-09-01T05:57:56.062Z,8.20
2022-09-01T06:02:57.328Z,7.70
2022-09-01T06:07:59.508Z,7.40
2022-09-01T06:12:58.606Z,6.70
2022-09-01T06:18:01.767Z,7.10
2022-09-01T06:23:00.968Z,6.80
2022-09-01T06:28:02.245Z,6.70
2022-09-01T06:33:03.410Z,6.60
2022-09-01T06:38:04.592Z,6.40
2022-09-01T06:43:06.688Z,6.60
2022-09-01T06:48:05.966Z,5.90
2022-09-01T06:58:07.040Z,6.50
2022-09-01T07:03:08.425Z,6.60
2022-09-01T07:08:09.538Z,6.90
2022-09-01T07:13:11.846Z,6.30
2022-09-01T07:18:12.078Z,6.50
2022-09-01T07:23:11.561Z,5.90
2022-09-01T07:28:18.993Z,5.60
2022-09-01T07:43:14.670Z,6.70
2022-09-01T07:48:35.996Z,5.20
2022-09-01T07:53:16.957Z,5.40
2022-09-01T07:58:17.096Z,5.50
2022-09-01T08:03:17.423Z,5.70
2022-09-01T08:08:20.997Z,5.30
2022-09-01T08:13:16.628Z,5.10
2022-09-01T08:18:17.131Z,6.20
2022-09-01T08:23:16.236Z,5.40
2022-09-01T08:28:26.545Z,4.90
2022-09-01T08:33:20.395Z,5.20
2022-09-01T08:38:19.547Z,4.80
2022-09-01T08:43:24.219Z,4.70
2022-09-01T08:49:16.136Z,4.80
2022-09-01T08:53:22.422Z,5.40
2022-09-01T08:58:25.457Z,5.20
2022-09-01T09:03:26.670Z,5.60
2022-09-01T09:08:33.340Z,5.20
2022-09-01T09:13:26.948Z,5.70
2022-09-01T09:18:38.837Z,5.80
2022-09-01T09:23:27.252Z,5.50
2022-09-01T09:28:26.455Z,5.20
2022-09-01T09:38:27.455Z,5.10
2022-09-01T09:43:31.290Z,5.70
2022-09-01T09:48:31.586Z,5.30
2022-09-01T09:53:29.053Z,4.50
2022-09-01T09:58:29.137Z,4.20
2022-09-01T10:03:29.141Z,3.60
2022-09-01T10:08:30.263Z,4.20
2022-09-01T10:13:31.386Z,3.30
2022-09-01T10:18:29.608Z,4.80
2022-09-01T10:23:31.179Z,4.50
2022-09-01T10:28:28.667Z,4.80
2022-09-01T10:33:28.274Z,4.40
2022-09-01T10:38:29.506Z,4.50
2022-09-01T10:43:36.146Z,4.70
2022-09-01T10:48:32.344Z,4.50
2022-09-01T10:53:51.509Z,4.30
2022-09-01T11:03:34.118Z,4.10
2022-09-01T11:08:31.914Z,3.00
2022-09-01T11:13:34.216Z,2.90
2022-09-01T11:18:33.588Z,2.90
2022-09-01T11:23:36.351Z,2.20
2022-09-01T11:28:35.530Z,3.10
2022-09-01T11:33:37.318Z,2.60
2022-09-01T11:38:37.843Z,2.60
2022-09-01T11:43:38.013Z,2.10
2022-09-01T11:48:37.104Z,2.20
2022-09-01T11:53:39.209Z,2.10
2022-09-01T11:58:38.519Z,1.80
2022-09-01T12:03:39.778Z,2.50
2022-09-01T12:08:41.053Z,2.50
2022-09-01T12:13:42.233Z,2.60
2022-09-01T12:19:05.365Z,2.50
2022-09-01T12:23:44.651Z,1.90
2022-09-01T12:28:45.761Z,2.40
2022-09-01T12:33:46.980Z,2.40
2022-09-01T12:38:52.096Z,2.30
2022-09-01T12:43:53.787Z,2.10
2022-09-01T12:48:49.508Z,2.00
2022-09-01T12:53:51.031Z,2.10
2022-09-01T12:58:51.131Z,2.40
2022-09-01T13:03:50.745Z,2.20
2022-09-01T13:08:51.848Z,2.10
2022-09-01T13:13:53.021Z,2.00
2022-09-01T13:19:11.059Z,2.00
2022-09-01T13:23:56.397Z,1.90
2022-09-01T13:28:56.472Z,2.40
2022-09-01T13:34:20.467Z,2.20
2022-09-01T13:38:56.744Z,2.00
2022-09-01T13:43:59.553Z,1.70
2022-09-01T13:49:02.737Z,1.80
2022-09-01T13:53:58.191Z,1.90
2022-09-01T13:58:59.373Z,1.70
2022-09-01T14:04:00.918Z,1.90
2022-09-01T14:09:02.082Z,1.80
2022-09-01T14:14:02.201Z,1.50
2022-09-01T14:19:01.375Z,1.60
2022-09-01T14:24:02.589Z,1.70
2022-09-01T14:29:02.790Z,1.90
2022-09-01T14:34:03.991Z,1.60
2022-09-01T14:39:05.146Z,1.70
2022-09-01T14:44:09.923Z,1.30
2022-09-01T14:49:07.024Z,1.60
2022-09-01T14:54:08.148Z,2.00
2022-09-01T14:59:09.298Z,1.70
2022-09-01T15:04:10.530Z,1.30
2022-09-01T15:09:16.061Z,1.70
2022-09-01T15:14:13.657Z,1.50
2022-09-01T15:19:12.767Z,1.50
2022-09-01T15:24:14.085Z,1.40
2022-09-01T15:29:15.325Z,1.50
2022-09-01T15:34:16.542Z,1.60
2022-09-01T15:39:37.705Z,1.40
2022-09-01T15:44:17.477Z,1.40
2022-09-01T15:49:19.678Z,1.00
2022-09-01T15:54:17.897Z,1.60
2022-09-01T15:59:19.278Z,1.50
2022-09-01T16:04:21.759Z,1.80
2022-09-01T16:09:19.749Z,1.60
2022-09-01T16:14:19.845Z,1.60
2022-09-01T16:19:19.126Z,2.10
2022-09-01T16:24:20.227Z,1.50
2022-09-01T16:29:22.342Z,1.50
2022-09-01T16:34:26.215Z,1.60
2022-09-01T16:39:22.366Z,1.70
2022-09-01T16:44:23.472Z,1.90
2022-09-01T16:49:25.399Z,1.80
2022-09-01T16:54:24.533Z,1.80
2022-09-01T16:59:26.588Z,2.10
2022-09-01T17:04:26.671Z,1.80
2022-09-01T17:09:25.766Z,1.70
2022-09-01T17:14:27.895Z,1.70
2022-09-01T17:19:26.967Z,2.10
2022-09-01T17:24:28.079Z,1.90
2022-09-01T17:29:30.163Z,1.90
2022-09-01T17:34:33.197Z,2.00
2022-09-01T17:39:30.284Z,1.90
2022-09-01T17:44:31.392Z,1.80
2022-09-01T17:49:32.538Z,2.20
2022-09-01T17:54:34.965Z,1.80
2022-09-01T17:59:34.105Z,1.90
2022-09-01T18:04:41.103Z,2.30
2022-09-01T18:09:36.248Z,2.10
2022-09-01T18:14:38.406Z,2.20
2022-09-01T18:19:37.520Z,2.70
2022-09-01T18:24:39.623Z,2.30
2022-09-01T18:29:41.382Z,2.50
2022-09-01T18:34:41.154Z,2.20
2022-09-01T18:39:41.895Z,2.20
2022-09-01T18:44:41.090Z,2.30
2022-09-01T18:49:42.246Z,2.80
2022-09-01T18:54:44.353Z,2.30
2022-09-01T18:59:43.542Z,2.00
2022-09-01T19:04:44.728Z,2.20
2022-09-01T19:09:46.315Z,2.80
2022-09-01T19:14:45.630Z,2.20
2022-09-01T19:19:46.910Z,2.50
2022-09-01T19:24:48.222Z,2.50
2022-09-01T19:29:49.813Z,2.90
2022-09-01T19:34:50.367Z,2.70
2022-09-01T19:39:53.993Z,2.90
2022-09-01T19:44:50.816Z,2.80
2022-09-01T19:49:50.139Z,3.20
2022-09-01T19:54:52.388Z,3.00
2022-09-01T19:59:51.508Z,3.60
2022-09-01T20:04:55.724Z,3.10
2022-09-01T20:09:53.407Z,3.10
2022-09-01T20:14:53.542Z,3.20
2022-09-01T20:19:53.659Z,2.50
2022-09-01T20:24:58.244Z,4.80
2022-09-01T20:29:54.599Z,4.00
2022-09-01T20:34:54.720Z,5.60
2022-09-01T20:39:55.023Z,3.90
2022-09-01T20:44:55.456Z,7.40
2022-09-01T20:49:54.745Z,6.00
2022-09-01T20:54:57.473Z,9.00
2022-09-01T20:59:57.597Z,3.20
2022-09-01T21:04:56.733Z,2.70
2022-09-01T21:09:57.863Z,3.30
2022-09-01T21:14:59.071Z,4.10
2022-09-01T21:20:01.169Z,7.70
2022-09-01T21:25:01.275Z,2.40
2022-09-01T21:30:00.430Z,3.30
2022-09-01T21:35:01.563Z,3.80
2022-09-01T21:40:02.696Z,3.80
2022-09-01T21:45:04.020Z,3.40
2022-09-01T21:50:04.116Z,4.50
2022-09-01T21:55:05.191Z,5.00
2022-09-01T22:00:06.301Z,4.30
2022-09-01T22:05:07.519Z,4.70
2022-09-01T22:10:08.666Z,4.70
2022-09-01T22:15:09.763Z,4.60
2022-09-01T22:20:11.855Z,5.10
2022-09-01T22:25:12.928Z,4.60
2022-09-01T22:30:12.044Z,4.80
2022-09-01T22:35:13.166Z,4.90
2022-09-01T22:40:14.282Z,5.50
2022-09-01T22:45:17.359Z,5.30
2022-09-01T22:50:17.478Z,5.40
2022-09-01T22:55:16.628Z,5.10
2022-09-01T23:00:17.855Z,4.60
2022-09-01T23:05:18.978Z,4.70
2022-09-01T23:10:20.142Z,5.40
2022-09-01T23:15:21.325Z,5.20
2022-09-01T23:20:22.857Z,6.20
2022-09-01T23:25:21.921Z,5.20
2022-09-01T23:30:23.034Z,5.50
2022-09-01T23:35:24.276Z,5.80
2022-09-01T23:40:28.297Z,4.60
2022-09-01T23:45:26.255Z,4.90
2022-09-01T23:50:26.319Z,5.90
2022-09-01T23:55:27.532Z,5.20
